createdAt,value
2022-12-31T00:01:44.771Z,13.34
2022-12-31T00:04:12.487Z,13.44
2022-12-31T00:06:40.247Z,13.35
2022-12-31T00:09:09.124Z,13.40
2022-12-31T00:11:38.973Z,13.42
2022-12-31T00:14:07.757Z,13.40
2022-12-31T00:16:37.612Z,13.42
2022-12-31T00:19:08.840Z,13.31
2022-12-31T00:21:37.520Z,13.45
2022-12-31T00:24:06.615Z,13.45
2022-12-31T00:26:36.245Z,13.31
2022-12-31T00:29:06.391Z,13.22
2022-12-31T00:31:36.093Z,13.27
2022-12-31T00:34:04.920Z,13.26
2022-12-31T00:36:34.758Z,13.24
2022-12-31T00:39:04.492Z,13.16
2022-12-31T00:41:33.045Z,13.26
2022-12-31T00:44:01.537Z,13.19
2022-12-31T00:46:31.649Z,13.04
2022-12-31T00:48:59.383Z,13.12
2022-12-31T00:51:28.253Z,13.11
2022-12-31T00:53:56.825Z,12.93
2022-12-31T00:56:26.635Z,12.99
2022-12-31T00:58:55.261Z,12.89
2022-12-31T01:01:25.004Z,13.00
2022-12-31T01:03:56.382Z,12.89
2022-12-31T01:06:24.550Z,13.01
2022-12-31T01:08:53.665Z,12.98
2022-12-31T01:11:22.353Z,13.13
2022-12-31T01:13:53.247Z,13.07
2022-12-31T01:16:23.403Z,12.58
2022-12-31T01:18:51.746Z,13.09
2022-12-31T01:21:21.517Z,12.80
2022-12-31T01:23:49.391Z,13.10
2022-12-31T01:26:19.149Z,13.08
2022-12-31T01:28:47.218Z,13.15
2022-12-31T01:31:18.512Z,13.16
2022-12-31T01:33:46.996Z,13.06
2022-12-31T01:36:20.359Z,13.28
2022-12-31T01:38:54.783Z,13.08
2022-12-31T01:41:24.519Z,13.21
2022-12-31T01:43:55.126Z,13.14
2022-12-31T01:46:28.126Z,13.29
2022-12-31T01:49:00.299Z,13.31
2022-12-31T01:51:31.967Z,13.32
2022-12-31T01:54:03.905Z,13.41
2022-12-31T01:56:31.906Z,13.36
2022-12-31T01:59:00.432Z,13.54
2022-12-31T02:01:32.036Z,13.53
2022-12-31T02:04:06.271Z,13.35
2022-12-31T02:06:38.983Z,13.49
2022-12-31T02:09:08.514Z,13.36
2022-12-31T02:11:37.987Z,13.56
2022-12-31T02:14:09.473Z,13.52
2022-12-31T02:16:44.463Z,13.55
2022-12-31T02:19:42.188Z,13.69
2022-12-31T02:22:22.915Z,13.67
2022-12-31T02:25:21.388Z,13.78
2022-12-31T02:27:58.990Z,13.82
2022-12-31T02:30:31.913Z,13.80
2022-12-31T02:33:12.201Z,13.87
2022-12-31T02:35:48.250Z,13.81
2022-12-31T02:38:20.932Z,13.82
2022-12-31T02:40:49.124Z,13.80
2022-12-31T02:43:16.870Z,13.88
2022-12-31T02:45:49.790Z,13.79
2022-12-31T02:48:34.183Z,13.89
2022-12-31T02:51:13.193Z,13.90
2022-12-31T02:54:05.053Z,14.01
2022-12-31T02:56:39.922Z,14.09
2022-12-31T02:59:29.948Z,14.12
2022-12-31T03:02:17.163Z,14.22
2022-12-31T03:04:49.563Z,14.18
2022-12-31T03:07:21.595Z,14.32
2022-12-31T03:09:50.062Z,14.34
2022-12-31T03:12:36.671Z,14.38
2022-12-31T03:15:06.550Z,14.39
2022-12-31T03:17:35.698Z,14.33
2022-12-31T03:20:21.321Z,14.38
2022-12-31T03:22:49.097Z,14.44
2022-12-31T03:25:33.532Z,14.38
2022-12-31T03:28:02.356Z,14.49
2022-12-31T03:30:30.831Z,14.43
2022-12-31T03:33:00.492Z,14.53
2022-12-31T03:35:30.283Z,14.47
2022-12-31T03:37:58.504Z,14.39
2022-12-31T03:40:28.337Z,14.48
2022-12-31T03:42:56.893Z,14.51
2022-12-31T03:45:25.175Z,14.48
2022-12-31T03:47:53.165Z,14.57
2022-12-31T03:50:22.245Z,14.54
2022-12-31T03:52:50.025Z,14.57
2022-12-31T03:55:17.917Z,14.64
2022-12-31T03:57:45.609Z,14.66
2022-12-31T04:00:17.418Z,14.66
2022-12-31T04:02:45.267Z,14.62
2022-12-31T04:05:13.536Z,14.73
2022-12-31T04:07:43.261Z,14.92
2022-12-31T04:10:12.930Z,15.01
2022-12-31T04:12:41.264Z,14.83
2022-12-31T04:15:10.497Z,14.92
2022-12-31T04:17:38.446Z,14.93
2022-12-31T04:20:07.049Z,14.96
2022-12-31T04:22:34.667Z,14.98
2022-12-31T04:25:03.712Z,15.02
2022-12-31T04:27:31.349Z,15.00
2022-12-31T04:29:58.967Z,15.06
2022-12-31T04:32:26.670Z,14.92
2022-12-31T04:34:54.295Z,14.88
2022-12-31T04:37:21.924Z,14.95
2022-12-31T04:39:49.536Z,14.98
2022-12-31T04:42:18.551Z,14.92
2022-12-31T04:44:46.198Z,14.99
2022-12-31T04:47:16.283Z,14.94
2022-12-31T04:49:47.766Z,15.03
2022-12-31T04:52:15.352Z,15.14
2022-12-31T04:54:42.978Z,15.09
2022-12-31T04:57:10.610Z,15.00
2022-12-31T04:59:39.646Z,15.06
2022-12-31T05:02:07.532Z,15.06
2022-12-31T05:04:35.375Z,15.18
2022-12-31T05:07:03.027Z,15.25
2022-12-31T05:09:31.026Z,15.29
2022-12-31T05:11:58.868Z,15.32
2022-12-31T05:14:26.547Z,15.22
2022-12-31T05:16:55.940Z,15.35
2022-12-31T05:19:23.729Z,15.25
2022-12-31T05:22:06.036Z,15.28
2022-12-31T05:24:33.744Z,15.20
2022-12-31T05:27:01.385Z,15.25
2022-12-31T05:29:29.072Z,15.24
2022-12-31T05:31:58.096Z,15.20
2022-12-31T05:34:25.772Z,15.26
2022-12-31T05:36:53.753Z,15.31
2022-12-31T05:39:22.129Z,15.12
2022-12-31T05:41:49.827Z,15.23
2022-12-31T05:44:17.501Z,15.15
2022-12-31T05:46:45.251Z,15.22
2022-12-31T05:49:14.257Z,15.18
2022-12-31T05:51:41.930Z,15.23
2022-12-31T05:54:09.663Z,15.20
2022-12-31T05:56:37.829Z,15.25
2022-12-31T05:59:05.880Z,15.25
2022-12-31T06:01:34.843Z,15.24
2022-12-31T06:04:02.641Z,15.26
2022-12-31T06:06:31.698Z,15.29
2022-12-31T06:08:59.485Z,15.29
2022-12-31T06:11:27.191Z,15.23
2022-12-31T06:13:54.896Z,15.26
2022-12-31T06:16:22.675Z,15.23
2022-12-31T06:18:50.746Z,15.24
2022-12-31T06:21:19.043Z,15.27
2022-12-31T06:23:48.284Z,15.31
2022-12-31T06:26:18.031Z,15.27
2022-12-31T06:28:45.697Z,15.30
2022-12-31T06:31:15.103Z,15.38
2022-12-31T06:33:43.246Z,15.35
2022-12-31T06:36:14.723Z,15.22
2022-12-31T06:38:44.148Z,15.30
2022-12-31T06:41:15.005Z,15.41
2022-12-31T06:43:44.420Z,15.38
2022-12-31T06:46:14.125Z,15.34
2022-12-31T06:48:44.608Z,15.27
2022-12-31T06:51:17.344Z,15.41
2022-12-31T06:53:45.376Z,15.26
2022-12-31T06:56:18.865Z,15.27
2022-12-31T06:58:47.117Z,15.31
2022-12-31T07:01:32.149Z,15.37
2022-12-31T07:04:06.183Z,15.35
2022-12-31T07:06:41.070Z,15.39
2022-12-31T07:09:17.493Z,15.39
2022-12-31T07:11:55.623Z,15.31
2022-12-31T07:14:34.816Z,15.35
2022-12-31T07:17:11.971Z,15.43
2022-12-31T07:19:55.462Z,15.48
2022-12-31T07:22:25.677Z,15.35
2022-12-31T07:24:54.071Z,15.33
2022-12-31T07:27:45.252Z,15.47
2022-12-31T07:30:16.851Z,15.48
2022-12-31T07:33:07.362Z,15.34
2022-12-31T07:35:43.255Z,15.29
2022-12-31T07:38:21.635Z,15.30
2022-12-31T07:40:58.000Z,15.22
2022-12-31T07:43:36.251Z,15.07
2022-12-31T07:46:12.677Z,15.29
2022-12-31T07:48:40.798Z,15.18
2022-12-31T07:51:11.551Z,15.12
2022-12-31T07:53:40.544Z,15.14
2022-12-31T07:56:09.817Z,15.12
2022-12-31T07:58:52.117Z,14.89
2022-12-31T08:01:31.027Z,14.91
2022-12-31T08:04:05.919Z,15.12
2022-12-31T08:06:45.403Z,15.10
2022-12-31T08:09:27.388Z,15.10
2022-12-31T08:11:58.039Z,15.04
2022-12-31T08:14:29.718Z,15.14
2022-12-31T08:16:58.457Z,15.12
2022-12-31T08:19:28.583Z,15.18
2022-12-31T08:22:09.288Z,15.10
2022-12-31T08:24:52.184Z,15.25
2022-12-31T08:27:27.197Z,15.19
2022-12-31T08:30:03.831Z,15.21
2022-12-31T08:32:40.137Z,15.35
2022-12-31T08:35:23.611Z,15.28
2022-12-31T08:38:00.307Z,15.33
2022-12-31T08:40:32.967Z,15.32
2022-12-31T08:43:18.507Z,15.27
2022-12-31T08:45:51.058Z,15.39
2022-12-31T08:48:30.043Z,15.47
2022-12-31T08:50:58.333Z,15.43
2022-12-31T08:53:26.499Z,15.38
2022-12-31T08:55:59.699Z,15.48
2022-12-31T08:58:41.605Z,15.47
2022-12-31T09:01:13.111Z,15.46
2022-12-31T09:03:53.771Z,15.46
2022-12-31T09:06:28.560Z,15.45
2022-12-31T09:09:01.692Z,15.59
2022-12-31T09:11:35.080Z,15.54
2022-12-31T09:14:18.480Z,15.55
2022-12-31T09:16:57.413Z,15.57
2022-12-31T09:19:25.068Z,15.55
2022-12-31T09:21:53.111Z,15.44
2022-12-31T09:24:21.262Z,15.56
2022-12-31T09:26:58.327Z,15.55
2022-12-31T09:29:42.310Z,15.62
2022-12-31T09:32:20.599Z,15.54
2022-12-31T09:34:55.165Z,15.47
2022-12-31T09:37:34.676Z,15.55
2022-12-31T09:40:11.898Z,15.61
2022-12-31T09:43:30.978Z,15.61
2022-12-31T09:46:30.717Z,15.57
2022-12-31T09:49:26.626Z,15.65
2022-12-31T09:52:07.529Z,15.58
2022-12-31T09:54:51.043Z,15.67
2022-12-31T09:57:31.415Z,15.69
2022-12-31T10:00:03.843Z,15.75
2022-12-31T10:02:58.461Z,15.81
2022-12-31T10:05:57.610Z,15.85
2022-12-31T10:08:47.760Z,15.80
2022-12-31T10:11:20.637Z,15.84
2022-12-31T10:14:03.007Z,15.98
2022-12-31T10:16:56.723Z,15.88
2022-12-31T10:19:51.406Z,16.00
2022-12-31T10:22:41.254Z,15.93
2022-12-31T10:25:38.831Z,15.96
2022-12-31T10:28:19.198Z,15.97
2022-12-31T10:30:59.040Z,16.21
2022-12-31T10:33:39.310Z,16.33
2022-12-31T10:36:12.889Z,16.45
2022-12-31T10:38:52.199Z,16.38
2022-12-31T10:41:48.659Z,16.51
2022-12-31T10:44:47.379Z,16.67
2022-12-31T10:47:38.943Z,16.73
2022-12-31T10:50:49.882Z,16.93
2022-12-31T10:53:50.648Z,16.79
2022-12-31T10:56:47.989Z,16.78
2022-12-31T10:59:35.032Z,16.80
2022-12-31T11:02:24.385Z,16.85
2022-12-31T11:05:37.368Z,16.97
2022-12-31T11:08:21.614Z,17.16
2022-12-31T11:11:12.907Z,17.21
2022-12-31T11:14:10.981Z,17.32
2022-12-31T11:16:49.226Z,17.46
2022-12-31T11:19:22.503Z,17.49
2022-12-31T11:22:04.541Z,17.60
2022-12-31T11:24:43.496Z,17.81
2022-12-31T11:27:25.868Z,17.81
2022-12-31T11:30:05.027Z,17.61
2022-12-31T11:32:50.470Z,17.90
2022-12-31T11:35:32.843Z,17.93
2022-12-31T11:38:15.156Z,17.60
2022-12-31T11:40:54.127Z,18.05
2022-12-31T11:43:29.781Z,17.99
2022-12-31T11:46:25.793Z,18.14
2022-12-31T11:49:05.815Z,18.22
2022-12-31T11:51:50.180Z,18.28
2022-12-31T11:54:52.529Z,18.35
2022-12-31T11:57:27.173Z,18.47
2022-12-31T12:00:00.316Z,18.63
2022-12-31T12:02:30.808Z,18.53
2022-12-31T12:05:08.288Z,18.19
2022-12-31T12:07:38.144Z,18.26
2022-12-31T12:10:18.046Z,18.25
2022-12-31T12:12:45.635Z,18.24
2022-12-31T12:15:21.157Z,18.19
2022-12-31T12:17:53.161Z,18.25
2022-12-31T12:20:28.455Z,18.20
2022-12-31T12:22:58.325Z,18.15
2022-12-31T12:25:28.025Z,18.25
2022-12-31T12:27:55.969Z,18.27
2022-12-31T12:30:27.105Z,18.15
2022-12-31T12:32:57.569Z,18.26
2022-12-31T12:35:27.809Z,18.27
2022-12-31T12:38:03.647Z,18.33
2022-12-31T12:40:34.322Z,18.38
2022-12-31T12:43:03.492Z,18.33
2022-12-31T12:45:47.763Z,18.40
2022-12-31T12:48:26.678Z,18.59
2022-12-31T12:50:54.499Z,18.64
2022-12-31T12:53:34.656Z,18.68
2022-12-31T12:56:13.273Z,18.64
2022-12-31T12:58:54.911Z,18.73
2022-12-31T13:01:34.098Z,18.77
2022-12-31T13:04:35.710Z,18.80
2022-12-31T13:07:12.900Z,18.69
2022-12-31T13:10:04.357Z,18.62
2022-12-31T13:13:05.307Z,18.46
2022-12-31T13:15:34.567Z,18.31
2022-12-31T13:18:14.802Z,18.48
2022-12-31T13:20:48.766Z,18.39
2022-12-31T13:23:23.054Z,18.45
2022-12-31T13:26:08.038Z,18.32
2022-12-31T13:28:40.335Z,18.20
2022-12-31T13:31:14.207Z,18.25
2022-12-31T13:33:47.977Z,18.10
2022-12-31T13:36:18.370Z,18.16
2022-12-31T13:38:49.508Z,18.17
2022-12-31T13:41:22.145Z,17.93
2022-12-31T13:43:56.748Z,18.04
2022-12-31T13:46:29.275Z,18.07
2022-12-31T13:49:02.557Z,17.93
2022-12-31T13:51:41.778Z,17.94
2022-12-31T13:54:22.947Z,17.82
2022-12-31T13:56:52.993Z,17.82
2022-12-31T13:59:24.784Z,17.64
2022-12-31T14:01:57.085Z,17.54
2022-12-31T14:04:34.457Z,17.62
2022-12-31T14:07:07.980Z,17.36
2022-12-31T14:09:36.450Z,17.64
2022-12-31T14:12:22.855Z,17.74
2022-12-31T14:14:59.859Z,17.71
2022-12-31T14:17:39.020Z,17.60
2022-12-31T14:20:16.989Z,17.61
2022-12-31T14:22:51.501Z,17.63
2022-12-31T14:25:24.554Z,17.71
2022-12-31T14:27:55.605Z,17.66
2022-12-31T14:30:27.002Z,17.74
2022-12-31T14:33:26.027Z,17.70
2022-12-31T14:36:10.586Z,17.65
2022-12-31T14:38:52.352Z,17.54
2022-12-31T14:41:40.840Z,17.03
2022-12-31T14:44:27.888Z,17.49
2022-12-31T14:47:06.742Z,17.58
2022-12-31T14:49:43.017Z,17.48
2022-12-31T14:52:22.697Z,16.95
2022-12-31T14:55:00.520Z,17.40
2022-12-31T14:58:01.563Z,17.35
2022-12-31T15:00:32.432Z,17.33
2022-12-31T15:03:02.310Z,17.24
2022-12-31T15:05:32.020Z,17.39
2022-12-31T15:08:21.943Z,17.36
2022-12-31T15:11:12.090Z,17.31
2022-12-31T15:13:53.057Z,17.23
2022-12-31T15:16:33.910Z,17.19
2022-12-31T15:19:30.962Z,17.12
2022-12-31T15:22:06.093Z,17.15
2022-12-31T15:24:35.224Z,17.14
2022-12-31T15:27:06.251Z,17.19
2022-12-31T15:29:37.580Z,17.10
2022-12-31T15:32:08.745Z,17.20
2022-12-31T15:34:37.506Z,17.19
2022-12-31T15:37:07.715Z,17.27
2022-12-31T15:39:44.897Z,17.23
2022-12-31T15:42:38.644Z,17.13
2022-12-31T15:45:15.817Z,17.27
2022-12-31T15:47:47.654Z,17.26
2022-12-31T15:50:18.975Z,17.15
2022-12-31T15:52:51.410Z,17.09
2022-12-31T15:55:27.156Z,17.19
2022-12-31T15:58:00.136Z,17.20
2022-12-31T16:00:38.505Z,17.14
2022-12-31T16:03:20.831Z,17.12
2022-12-31T16:05:49.136Z,17.05
2022-12-31T16:08:20.974Z,16.97
2022-12-31T16:10:50.156Z,17.09
2022-12-31T16:13:22.790Z,17.07
2022-12-31T16:15:52.746Z,17.07
2022-12-31T16:18:23.011Z,17.10
2022-12-31T16:20:51.864Z,16.94
2022-12-31T16:23:23.468Z,17.07
2022-12-31T16:25:58.795Z,16.92
2022-12-31T16:28:31.413Z,16.98
2022-12-31T16:31:02.674Z,16.99
2022-12-31T16:33:32.151Z,16.97
2022-12-31T16:36:01.138Z,16.96
2022-12-31T16:38:33.634Z,16.82
2022-12-31T16:41:17.700Z,16.73
2022-12-31T16:43:47.145Z,16.74
2022-12-31T16:46:20.179Z,16.75
2022-12-31T16:48:50.583Z,16.86
2022-12-31T16:51:21.134Z,16.67
2022-12-31T16:53:50.142Z,16.87
2022-12-31T16:56:25.935Z,16.88
2022-12-31T16:59:01.324Z,16.96
2022-12-31T17:01:33.503Z,16.88
2022-12-31T17:04:05.011Z,16.87
2022-12-31T17:06:33.580Z,16.83
2022-12-31T17:09:13.993Z,16.85
2022-12-31T17:11:51.387Z,16.83
2022-12-31T17:14:22.932Z,16.93
2022-12-31T17:17:02.178Z,16.74
2022-12-31T17:19:44.834Z,16.72
2022-12-31T17:22:21.712Z,16.82
2022-12-31T17:24:52.921Z,16.77
2022-12-31T17:27:21.877Z,16.78
2022-12-31T17:29:49.539Z,16.80
2022-12-31T17:32:31.999Z,16.78
2022-12-31T17:34:59.844Z,16.66
2022-12-31T17:37:29.518Z,16.67
2022-12-31T17:40:17.371Z,16.69
2022-12-31T17:42:50.317Z,16.62
2022-12-31T17:45:21.694Z,16.62
2022-12-31T17:47:52.528Z,16.60
2022-12-31T17:50:22.651Z,16.57
2022-12-31T17:52:50.618Z,16.50
2022-12-31T17:55:18.198Z,16.55
2022-12-31T17:57:52.183Z,16.54
2022-12-31T18:00:21.877Z,16.65
2022-12-31T18:02:49.673Z,16.72
2022-12-31T18:05:19.343Z,16.71
2022-12-31T18:07:47.037Z,16.76
2022-12-31T18:10:16.859Z,16.77
2022-12-31T18:12:45.933Z,16.66
2022-12-31T18:15:18.076Z,16.69
2022-12-31T18:17:46.076Z,16.74
2022-12-31T18:20:14.038Z,16.88
2022-12-31T18:22:43.135Z,16.93
2022-12-31T18:25:14.628Z,16.90
2022-12-31T18:27:42.409Z,16.98
2022-12-31T18:30:10.986Z,16.98
2022-12-31T18:32:42.254Z,16.86
2022-12-31T18:35:40.292Z,16.89
2022-12-31T18:38:02.995Z,16.95
2022-12-31T18:40:30.796Z,16.87
2022-12-31T18:43:04.504Z,16.99
2022-12-31T18:45:32.715Z,16.93
2022-12-31T18:48:01.743Z,17.02
2022-12-31T18:50:29.428Z,16.93
2022-12-31T18:52:57.070Z,16.95
2022-12-31T18:55:33.042Z,16.90
2022-12-31T18:58:00.698Z,16.80
2022-12-31T19:00:28.349Z,16.95
2022-12-31T19:02:56.027Z,16.96
2022-12-31T19:05:27.428Z,16.88
2022-12-31T19:07:55.704Z,16.96
2022-12-31T19:10:24.297Z,16.87
2022-12-31T19:12:52.208Z,16.87
2022-12-31T19:15:25.883Z,16.80
2022-12-31T19:17:53.549Z,16.77
2022-12-31T19:20:21.155Z,16.86
2022-12-31T19:22:50.240Z,16.83
2022-12-31T19:25:20.831Z,16.79
2022-12-31T19:27:49.001Z,16.69
2022-12-31T19:30:18.698Z,16.69
2022-12-31T19:32:46.358Z,16.65
2022-12-31T19:35:16.064Z,16.64
2022-12-31T19:37:44.965Z,16.65
2022-12-31T19:40:16.928Z,16.50
2022-12-31T19:42:45.460Z,16.55
2022-12-31T19:45:17.442Z,16.60
2022-12-31T19:47:46.460Z,16.61
2022-12-31T19:50:15.574Z,16.49
2022-12-31T19:52:44.065Z,16.53
2022-12-31T19:55:15.929Z,16.51
2022-12-31T19:57:43.638Z,16.56
2022-12-31T20:00:14.206Z,16.52
2022-12-31T20:02:42.935Z,16.49
2022-12-31T20:05:11.955Z,16.57
2022-12-31T20:07:39.843Z,16.44
2022-12-31T20:10:08.867Z,16.50
2022-12-31T20:12:44.131Z,16.39
2022-12-31T20:15:12.426Z,16.45
2022-12-31T20:17:40.459Z,16.44
2022-12-31T20:20:09.190Z,16.50
2022-12-31T20:22:36.823Z,16.67
2022-12-31T20:25:04.920Z,16.57
2022-12-31T20:27:33.397Z,16.53
2022-12-31T20:30:03.383Z,16.56
2022-12-31T20:32:32.179Z,16.60
2022-12-31T20:34:59.854Z,16.74
2022-12-31T20:37:27.496Z,16.66
2022-12-31T20:39:55.113Z,16.73
2022-12-31T20:42:22.785Z,16.66
2022-12-31T20:44:50.393Z,16.49
2022-12-31T20:47:19.416Z,16.68
2022-12-31T20:50:10.261Z,16.51
2022-12-31T20:52:34.682Z,16.67
2022-12-31T20:55:02.324Z,16.73
2022-12-31T20:57:33.579Z,16.85
2022-12-31T21:00:01.767Z,16.72
2022-12-31T21:02:41.689Z,16.80
2022-12-31T21:05:10.707Z,16.94
2022-12-31T21:07:38.517Z,16.82
2022-12-31T21:10:07.048Z,16.76
2022-12-31T21:12:43.060Z,16.63
2022-12-31T21:15:11.255Z,16.60
2022-12-31T21:17:40.197Z,16.60
2022-12-31T21:20:09.211Z,16.57
2022-12-31T21:22:36.892Z,16.41
2022-12-31T21:25:05.341Z,16.52
2022-12-31T21:27:33.016Z,16.46
2022-12-31T21:32:49.613Z,16.43
2022-12-31T21:38:06.647Z,16.24
2022-12-31T21:40:35.073Z,16.28
2022-12-31T21:43:02.704Z,16.33
2022-12-31T21:45:30.391Z,16.17
2022-12-31T21:48:19.071Z,15.86
2022-12-31T21:50:48.459Z,16.07
2022-12-31T21:53:21.810Z,16.13
2022-12-31T21:56:11.495Z,15.89
2022-12-31T21:58:41.154Z,15.82
2022-12-31T22:01:33.465Z,15.75
2022-12-31T22:04:02.682Z,15.77
2022-12-31T22:06:30.845Z,15.76
2022-12-31T22:08:58.512Z,15.68
2022-12-31T22:11:28.333Z,15.84
2022-12-31T22:13:56.675Z,15.82
2022-12-31T22:16:24.861Z,15.69
2022-12-31T22:18:55.512Z,15.67
2022-12-31T22:21:26.536Z,15.59
2022-12-31T22:23:55.854Z,15.65
2022-12-31T22:26:26.919Z,15.48
2022-12-31T22:28:58.895Z,15.47
2022-12-31T22:31:29.721Z,15.39
2022-12-31T22:33:58.294Z,15.47
2022-12-31T22:36:27.465Z,15.52
2022-12-31T22:38:58.660Z,15.22
2022-12-31T22:41:29.926Z,15.40
2022-12-31T22:44:03.700Z,15.55
2022-12-31T22:46:33.501Z,15.49
2022-12-31T22:49:02.837Z,15.34
2022-12-31T22:51:54.800Z,15.39
2022-12-31T22:54:20.303Z,15.40
2022-12-31T22:56:47.947Z,15.39
2022-12-31T22:59:15.567Z,15.27
2022-12-31T23:01:43.214Z,15.28
2022-12-31T23:04:12.002Z,15.37
2022-12-31T23:06:44.192Z,15.33
2022-12-31T23:09:30.180Z,15.30
2022-12-31T23:11:57.980Z,15.25
2022-12-31T23:14:43.582Z,15.18
2022-12-31T23:17:33.725Z,15.15
2022-12-31T23:20:19.261Z,15.06
2022-12-31T23:23:07.530Z,15.20
2022-12-31T23:25:36.247Z,15.08
2022-12-31T23:28:04.871Z,15.14
2022-12-31T23:30:33.037Z,15.07
2022-12-31T23:33:00.917Z,15.20
2022-12-31T23:35:29.927Z,15.07
2022-12-31T23:37:58.943Z,15.14
2022-12-31T23:40:34.088Z,15.12
2022-12-31T23:43:03.384Z,15.17
2022-12-31T23:45:33.412Z,15.09
2022-12-31T23:48:01.638Z,15.09
2022-12-31T23:50:29.420Z,14.96
2022-12-31T23:52:57.096Z,15.02
2022-12-31T23:55:26.067Z,14.95
2022-12-31T23:57:53.632Z,15.03
